createdAt,value
2023-05-14T00:00:25.851Z,7.82
2023-05-14T00:01:28.201Z,8.60
2023-05-14T00:02:30.436Z,8.23
2023-05-14T00:03:32.811Z,9.10
2023-05-14T00:04:34.976Z,8.70
2023-05-14T00:05:37.141Z,8.23
2023-05-14T00:06:39.430Z,8.80
2023-05-14T00:07:41.555Z,8.13
2023-05-14T00:08:43.662Z,8.13
2023-05-14T00:09:45.754Z,8.45
2023-05-14T00:10:47.887Z,7.88
2023-05-14T00:11:50.038Z,8.90
2023-05-14T00:12:52.169Z,8.63
2023-05-14T00:13:54.304Z,8.00
2023-05-14T00:14:57.032Z,8.27
2023-05-14T00:15:59.328Z,8.57
2023-05-14T00:17:01.620Z,9.07
2023-05-14T00:18:03.882Z,8.43
2023-05-14T00:19:06.247Z,8.45
2023-05-14T00:20:08.934Z,8.88
2023-05-14T00:21:11.210Z,9.73
2023-05-14T00:22:13.339Z,8.05
2023-05-14T00:23:15.500Z,8.80
2023-05-14T00:24:17.627Z,8.18
2023-05-14T00:25:19.758Z,8.70
2023-05-14T00:26:21.862Z,9.10
2023-05-14T00:27:24.020Z,8.68
2023-05-14T00:28:26.423Z,8.57
2023-05-14T00:29:28.532Z,8.52
2023-05-14T00:30:30.618Z,8.65
2023-05-14T00:31:32.786Z,9.00
2023-05-14T00:32:35.221Z,8.80
2023-05-14T00:33:37.340Z,8.95
2023-05-14T00:34:39.447Z,8.10
2023-05-14T00:35:41.676Z,7.72
2023-05-14T00:36:43.758Z,7.90
2023-05-14T00:37:45.882Z,8.15
2023-05-14T00:38:49.341Z,8.60
2023-05-14T00:39:51.471Z,8.65
2023-05-14T00:40:53.546Z,8.00
2023-05-14T00:41:55.819Z,8.20
2023-05-14T00:42:57.962Z,8.27
2023-05-14T00:44:00.092Z,7.90
2023-05-14T00:45:02.219Z,7.90
2023-05-14T00:46:04.391Z,8.40
2023-05-14T00:47:07.367Z,9.10
2023-05-14T00:48:09.564Z,8.52
2023-05-14T00:49:11.793Z,7.97
2023-05-14T00:50:15.227Z,9.23
2023-05-14T00:51:18.182Z,8.35
2023-05-14T00:52:20.541Z,8.25
2023-05-14T00:53:22.862Z,11.27
2023-05-14T00:54:25.226Z,9.85
2023-05-14T00:55:28.992Z,8.45
2023-05-14T00:56:31.726Z,9.13
2023-05-14T00:57:37.199Z,8.55
2023-05-14T00:58:39.353Z,8.82
2023-05-14T00:59:42.719Z,8.43
2023-05-14T01:00:44.992Z,7.85
2023-05-14T01:01:47.130Z,7.13
2023-05-14T01:02:49.296Z,7.07
2023-05-14T01:03:53.534Z,7.32
2023-05-14T01:04:56.039Z,8.18
2023-05-14T01:06:10.162Z,8.10
2023-05-14T01:07:47.290Z,10.38
2023-05-14T01:08:52.332Z,8.68
2023-05-14T01:10:09.498Z,9.88
2023-05-14T01:11:15.805Z,8.63
2023-05-14T01:12:27.040Z,8.10
2023-05-14T01:13:34.501Z,8.55
2023-05-14T01:14:59.015Z,8.20
2023-05-14T01:16:02.383Z,7.82
2023-05-14T01:17:06.284Z,9.25
2023-05-14T01:18:11.429Z,8.02
2023-05-14T01:19:27.688Z,8.10
2023-05-14T01:20:29.795Z,7.85
2023-05-14T01:21:40.983Z,8.52
2023-05-14T01:22:43.336Z,8.55
2023-05-14T01:23:45.478Z,8.40
2023-05-14T01:24:47.694Z,9.52
2023-05-14T01:25:50.017Z,8.77
2023-05-14T01:26:52.873Z,8.35
2023-05-14T01:28:12.128Z,9.40
2023-05-14T01:29:20.934Z,8.30
2023-05-14T01:30:32.152Z,8.48
2023-05-14T01:31:36.761Z,7.95
2023-05-14T01:33:42.566Z,7.53
2023-05-14T01:34:45.692Z,8.50
2023-05-14T01:35:48.530Z,8.23
2023-05-14T01:36:51.491Z,7.70
2023-05-14T01:38:05.350Z,7.97
2023-05-14T01:39:09.693Z,9.43
2023-05-14T01:40:12.042Z,8.55
2023-05-14T01:41:14.668Z,8.40
2023-05-14T01:42:16.827Z,7.90
2023-05-14T01:43:19.211Z,8.15
2023-05-14T01:44:21.848Z,8.73
2023-05-14T01:45:24.621Z,8.65
2023-05-14T01:46:26.835Z,8.73
2023-05-14T01:47:29.006Z,8.85
2023-05-14T01:48:31.187Z,8.57
2023-05-14T01:49:33.281Z,9.38
2023-05-14T01:50:35.505Z,8.95
2023-05-14T01:51:37.925Z,9.43
2023-05-14T01:52:40.073Z,8.43
2023-05-14T01:53:42.184Z,9.50
2023-05-14T01:54:44.314Z,7.72
2023-05-14T01:55:46.434Z,8.55
2023-05-14T01:56:48.543Z,8.85
2023-05-14T01:57:51.479Z,8.05
2023-05-14T01:58:53.930Z,9.20
2023-05-14T01:59:56.028Z,8.98
2023-05-14T02:00:58.167Z,8.68
2023-05-14T02:02:00.529Z,9.15
2023-05-14T02:03:02.768Z,8.85
2023-05-14T02:04:05.122Z,10.15
2023-05-14T02:05:07.877Z,8.60
2023-05-14T02:06:09.960Z,8.88
2023-05-14T02:07:12.051Z,8.90
2023-05-14T02:08:14.208Z,8.68
2023-05-14T02:09:16.396Z,9.25
2023-05-14T02:10:18.582Z,9.25
2023-05-14T02:11:21.924Z,9.38
2023-05-14T02:12:24.062Z,8.60
2023-05-14T02:13:26.625Z,8.00
2023-05-14T02:14:28.791Z,8.63
2023-05-14T02:15:30.908Z,8.85
2023-05-14T02:16:33.090Z,8.90
2023-05-14T02:17:35.661Z,9.15
2023-05-14T02:18:37.899Z,9.25
2023-05-14T02:19:40.214Z,8.73
2023-05-14T02:20:42.381Z,8.77
2023-05-14T02:21:44.500Z,9.80
2023-05-14T02:22:46.744Z,8.80
2023-05-14T02:23:49.637Z,9.10
2023-05-14T02:24:51.887Z,9.00
2023-05-14T02:25:54.051Z,8.63
2023-05-14T02:26:56.185Z,9.50
2023-05-14T02:27:58.298Z,9.13
2023-05-14T02:29:00.501Z,9.05
2023-05-14T02:30:03.433Z,9.10
2023-05-14T02:31:05.823Z,8.77
2023-05-14T02:32:08.012Z,7.72
2023-05-14T02:33:10.252Z,8.38
2023-05-14T02:34:12.463Z,8.77
2023-05-14T02:35:14.647Z,8.30
2023-05-14T02:36:16.824Z,9.02
2023-05-14T02:37:18.916Z,9.02
2023-05-14T02:38:21.016Z,8.30
2023-05-14T02:39:23.129Z,8.70
2023-05-14T02:40:25.761Z,8.68
2023-05-14T02:41:28.127Z,8.68
2023-05-14T02:42:30.314Z,9.20
2023-05-14T02:43:32.432Z,8.82
2023-05-14T02:44:34.578Z,8.80
2023-05-14T02:45:36.659Z,8.98
2023-05-14T02:46:38.844Z,9.13
2023-05-14T02:47:41.101Z,7.85
2023-05-14T02:48:43.215Z,8.18
2023-05-14T02:49:45.358Z,7.97
2023-05-14T02:50:49.522Z,8.20
2023-05-14T02:51:51.775Z,9.18
2023-05-14T02:52:53.936Z,8.70
2023-05-14T02:53:56.182Z,9.18
2023-05-14T02:54:58.384Z,9.07
2023-05-14T02:56:00.533Z,8.07
2023-05-14T02:57:02.795Z,8.43
2023-05-14T02:58:04.904Z,8.20
2023-05-14T02:59:07.049Z,8.32
2023-05-14T03:00:10.327Z,8.07
2023-05-14T03:01:12.915Z,8.43
2023-05-14T03:02:15.390Z,7.88
2023-05-14T03:03:19.663Z,8.40
2023-05-14T03:04:22.055Z,8.50
2023-05-14T03:05:24.240Z,7.00
2023-05-14T03:06:26.393Z,7.90
2023-05-14T03:07:28.508Z,7.80
2023-05-14T03:08:30.888Z,7.45
2023-05-14T03:09:32.969Z,8.50
2023-05-14T03:10:35.042Z,7.80
2023-05-14T03:11:37.155Z,8.95
2023-05-14T03:12:39.344Z,8.73
2023-05-14T03:13:41.545Z,7.95
2023-05-14T03:14:44.342Z,7.53
2023-05-14T03:15:47.204Z,8.02
2023-05-14T03:16:50.149Z,8.48
2023-05-14T03:17:52.393Z,8.23
2023-05-14T03:18:54.533Z,6.78
2023-05-14T03:19:56.648Z,7.95
2023-05-14T03:20:58.893Z,8.15
2023-05-14T03:22:01.252Z,7.88
2023-05-14T03:23:03.398Z,7.70
2023-05-14T03:24:05.780Z,8.15
2023-05-14T03:25:08.230Z,7.40
2023-05-14T03:26:10.598Z,7.07
2023-05-14T03:27:12.708Z,8.38
2023-05-14T03:28:14.772Z,7.20
2023-05-14T03:29:18.210Z,7.20
2023-05-14T03:30:20.575Z,7.68
2023-05-14T03:31:22.811Z,7.63
2023-05-14T03:32:25.060Z,7.82
2023-05-14T03:33:27.328Z,7.20
2023-05-14T03:34:29.421Z,7.63
2023-05-14T03:35:31.604Z,6.65
2023-05-14T03:36:34.166Z,6.80
2023-05-14T03:37:36.302Z,7.45
2023-05-14T03:38:38.466Z,7.53
2023-05-14T03:39:40.601Z,7.45
2023-05-14T03:40:42.740Z,7.65
2023-05-14T03:41:44.878Z,7.00
2023-05-14T03:42:47.015Z,6.53
2023-05-14T03:43:49.149Z,7.60
2023-05-14T03:44:51.386Z,6.50
2023-05-14T03:45:53.607Z,7.95
2023-05-14T03:46:56.060Z,5.88
2023-05-14T03:47:58.250Z,7.00
2023-05-14T03:49:00.606Z,6.72
2023-05-14T03:50:02.799Z,7.38
2023-05-14T03:51:05.047Z,7.18
2023-05-14T03:52:07.236Z,7.05
2023-05-14T03:53:09.342Z,6.85
2023-05-14T03:54:11.478Z,6.30
2023-05-14T03:55:13.663Z,7.25
2023-05-14T03:56:16.023Z,6.82
2023-05-14T03:57:18.120Z,6.43
2023-05-14T03:58:20.349Z,5.97
2023-05-14T03:59:22.536Z,7.57
2023-05-14T04:00:25.027Z,7.40
2023-05-14T04:01:27.521Z,6.60
2023-05-14T04:02:30.026Z,7.05
2023-05-14T04:03:32.365Z,6.80
2023-05-14T04:04:34.902Z,6.97
2023-05-14T04:05:37.036Z,6.50
2023-05-14T04:06:39.203Z,6.65
2023-05-14T04:07:41.340Z,7.00
2023-05-14T04:08:43.443Z,6.15
2023-05-14T04:09:45.596Z,7.10
2023-05-14T04:10:47.718Z,6.57
2023-05-14T04:11:49.870Z,6.22
2023-05-14T04:12:52.131Z,6.82
2023-05-14T04:13:54.312Z,7.13
2023-05-14T04:14:57.712Z,6.75
2023-05-14T04:16:00.494Z,6.75
2023-05-14T04:17:02.666Z,6.68
2023-05-14T04:18:05.271Z,6.88
2023-05-14T04:19:07.669Z,6.85
2023-05-14T04:20:10.324Z,6.75
2023-05-14T04:21:12.616Z,7.32
2023-05-14T04:22:14.752Z,7.20
2023-05-14T04:23:16.871Z,6.20
2023-05-14T04:24:19.034Z,7.47
2023-05-14T04:25:21.287Z,6.85
2023-05-14T04:26:23.453Z,7.07
2023-05-14T04:27:25.718Z,6.53
2023-05-14T04:28:27.820Z,7.45
2023-05-14T04:29:30.099Z,6.78
2023-05-14T04:30:32.224Z,7.40
2023-05-14T04:31:34.415Z,7.05
2023-05-14T04:32:36.776Z,6.60
2023-05-14T04:33:39.919Z,6.65
2023-05-14T04:34:42.097Z,6.80
2023-05-14T04:35:45.389Z,6.20
2023-05-14T04:36:47.495Z,6.60
2023-05-14T04:37:49.661Z,6.88
2023-05-14T04:38:51.763Z,6.38
2023-05-14T04:39:53.866Z,6.80
2023-05-14T04:40:55.990Z,7.15
2023-05-14T04:41:58.076Z,6.88
2023-05-14T04:43:00.225Z,6.53
2023-05-14T04:44:03.245Z,7.15
2023-05-14T04:45:06.825Z,6.15
2023-05-14T04:46:09.556Z,5.75
2023-05-14T04:47:12.581Z,6.25
2023-05-14T04:48:14.736Z,6.90
2023-05-14T04:49:16.832Z,6.22
2023-05-14T04:50:18.958Z,6.03
2023-05-14T04:51:21.074Z,6.78
2023-05-14T04:52:23.303Z,6.13
2023-05-14T04:53:25.481Z,6.75
2023-05-14T04:54:27.621Z,6.72
2023-05-14T04:55:29.903Z,6.65
2023-05-14T04:56:32.005Z,6.07
2023-05-14T04:57:34.104Z,7.55
2023-05-14T04:58:36.438Z,7.25
2023-05-14T04:59:38.560Z,6.47
2023-05-14T05:00:40.936Z,6.90
2023-05-14T05:01:43.150Z,6.75
2023-05-14T05:02:45.325Z,7.15
2023-05-14T05:03:47.548Z,6.32
2023-05-14T05:04:49.706Z,6.20
2023-05-14T05:05:52.094Z,7.35
2023-05-14T05:06:54.197Z,6.25
2023-05-14T05:07:56.333Z,6.53
2023-05-14T05:08:59.564Z,6.53
2023-05-14T05:10:03.696Z,6.57
2023-05-14T05:11:05.828Z,7.28
2023-05-14T05:12:08.231Z,6.32
2023-05-14T05:13:10.323Z,6.35
2023-05-14T05:14:12.424Z,6.72
2023-05-14T05:15:14.549Z,6.90
2023-05-14T05:16:16.730Z,6.28
2023-05-14T05:17:18.877Z,6.82
2023-05-14T05:18:21.211Z,5.70
2023-05-14T05:19:35.898Z,6.80
2023-05-14T05:20:44.980Z,6.65
2023-05-14T05:21:47.122Z,7.38
2023-05-14T05:22:49.221Z,5.70
2023-05-14T05:23:51.323Z,6.88
2023-05-14T05:24:53.461Z,6.75
2023-05-14T05:25:55.553Z,7.03
2023-05-14T05:26:57.690Z,6.47
2023-05-14T05:27:59.890Z,7.00
2023-05-14T05:29:02.166Z,7.00
2023-05-14T05:30:04.677Z,7.18
2023-05-14T05:31:06.771Z,6.25
2023-05-14T05:32:08.980Z,6.28
2023-05-14T05:33:12.269Z,6.45
2023-05-14T05:34:14.462Z,7.05
2023-05-14T05:35:16.577Z,6.45
2023-05-14T05:36:18.724Z,6.53
2023-05-14T05:37:20.981Z,7.00
2023-05-14T05:38:23.255Z,6.88
2023-05-14T05:39:25.347Z,7.72
2023-05-14T05:40:27.554Z,6.72
2023-05-14T05:41:30.328Z,7.15
2023-05-14T05:42:32.423Z,7.07
2023-05-14T05:43:34.600Z,6.40
2023-05-14T05:44:36.749Z,6.80
2023-05-14T05:45:38.838Z,6.18
2023-05-14T05:46:41.109Z,7.05
2023-05-14T05:47:43.385Z,7.32
2023-05-14T05:48:45.662Z,6.93
2023-05-14T05:49:47.833Z,6.82
2023-05-14T05:50:50.454Z,6.88
2023-05-14T05:51:52.580Z,7.72
2023-05-14T05:52:54.736Z,7.05
2023-05-14T05:53:56.910Z,6.95
2023-05-14T05:54:59.123Z,7.47
2023-05-14T05:57:25.664Z,7.05
2023-05-14T05:58:28.556Z,6.53
2023-05-14T05:59:30.981Z,6.80
2023-05-14T06:00:33.492Z,6.80
2023-05-14T06:01:35.743Z,7.20
2023-05-14T06:02:38.222Z,7.07
2023-05-14T06:03:40.451Z,6.93
2023-05-14T06:04:42.529Z,7.45
2023-05-14T06:05:44.804Z,6.57
2023-05-14T06:06:47.060Z,7.35
2023-05-14T06:07:49.228Z,7.35
2023-05-14T06:08:51.445Z,7.45
2023-05-14T06:09:53.528Z,7.40
2023-05-14T06:10:55.615Z,6.57
2023-05-14T06:11:57.764Z,7.82
2023-05-14T06:12:59.937Z,7.53
2023-05-14T06:14:02.173Z,6.82
2023-05-14T06:15:04.782Z,7.53
2023-05-14T06:16:06.997Z,7.65
2023-05-14T06:17:09.182Z,7.93
2023-05-14T06:18:11.636Z,6.68
2023-05-14T06:19:14.167Z,7.07
2023-05-14T06:20:16.490Z,7.22
2023-05-14T06:21:19.150Z,7.72
2023-05-14T06:22:21.322Z,6.60
2023-05-14T06:23:23.454Z,7.13
2023-05-14T06:24:25.572Z,6.70
2023-05-14T06:25:27.712Z,7.50
2023-05-14T06:26:30.107Z,7.43
2023-05-14T06:27:32.292Z,7.53
2023-05-14T06:28:34.462Z,6.45
2023-05-14T06:29:36.617Z,7.43
2023-05-14T06:30:38.739Z,6.85
2023-05-14T06:31:41.109Z,6.93
2023-05-14T06:32:43.314Z,7.60
2023-05-14T06:33:45.563Z,7.38
2023-05-14T06:34:47.668Z,7.97
2023-05-14T06:35:49.886Z,7.35
2023-05-14T06:36:52.029Z,7.10
2023-05-14T06:37:54.269Z,7.72
2023-05-14T06:38:56.423Z,8.00
2023-05-14T06:39:58.685Z,8.50
2023-05-14T06:41:00.815Z,7.78
2023-05-14T06:42:03.171Z,7.38
2023-05-14T06:43:06.748Z,7.97
2023-05-14T06:44:08.952Z,7.32
2023-05-14T06:45:11.419Z,8.32
2023-05-14T06:46:13.525Z,7.57
2023-05-14T06:47:15.881Z,8.15
2023-05-14T06:48:21.718Z,7.25
2023-05-14T06:49:23.950Z,8.63
2023-05-14T06:50:26.122Z,7.95
2023-05-14T06:51:28.236Z,7.82
2023-05-14T06:52:30.481Z,7.80
2023-05-14T06:53:32.617Z,8.30
2023-05-14T06:54:34.796Z,7.45
2023-05-14T06:55:36.917Z,7.18
2023-05-14T06:56:39.074Z,7.95
2023-05-14T06:57:41.246Z,7.57
2023-05-14T06:58:43.372Z,7.80
2023-05-14T06:59:45.515Z,6.72
2023-05-14T07:00:48.187Z,8.02
2023-05-14T07:01:50.445Z,8.20
2023-05-14T07:02:52.679Z,8.20
2023-05-14T07:03:54.862Z,8.07
2023-05-14T07:04:57.060Z,8.48
2023-05-14T07:05:59.142Z,7.95
2023-05-14T07:07:01.273Z,7.18
2023-05-14T07:08:03.433Z,8.50
2023-05-14T07:09:06.554Z,7.80
2023-05-14T07:10:08.739Z,7.70
2023-05-14T07:11:10.848Z,8.10
2023-05-14T07:12:12.991Z,7.95
2023-05-14T07:13:15.128Z,7.28
2023-05-14T07:14:17.342Z,7.38
2023-05-14T07:15:19.558Z,7.43
2023-05-14T07:16:21.690Z,7.75
2023-05-14T07:17:24.256Z,7.90
2023-05-14T07:18:26.557Z,7.43
2023-05-14T07:19:29.687Z,6.53
2023-05-14T07:20:31.795Z,7.50
2023-05-14T07:21:35.271Z,7.65
2023-05-14T07:22:37.376Z,7.75
2023-05-14T07:23:39.610Z,7.47
2023-05-14T07:24:41.770Z,6.78
2023-05-14T07:25:43.891Z,7.43
2023-05-14T07:26:46.167Z,7.60
2023-05-14T07:27:48.389Z,7.90
2023-05-14T07:28:50.677Z,7.38
2023-05-14T07:29:52.813Z,7.75
2023-05-14T07:30:54.932Z,6.97
2023-05-14T07:31:57.154Z,7.15
2023-05-14T07:32:59.377Z,7.32
2023-05-14T07:34:01.574Z,7.03
2023-05-14T07:35:03.995Z,6.93
2023-05-14T07:36:06.579Z,7.47
2023-05-14T07:37:08.969Z,7.18
2023-05-14T07:38:11.139Z,7.35
2023-05-14T07:39:13.330Z,7.60
2023-05-14T07:40:15.769Z,7.18
2023-05-14T07:41:18.004Z,7.57
2023-05-14T07:42:28.287Z,7.30
2023-05-14T07:43:38.532Z,7.68
2023-05-14T07:44:40.605Z,7.18
2023-05-14T07:45:42.834Z,6.63
2023-05-14T07:46:44.938Z,7.00
2023-05-14T07:47:47.234Z,7.47
2023-05-14T07:48:49.440Z,7.75
2023-05-14T07:49:55.018Z,7.13
2023-05-14T07:50:57.135Z,6.50
2023-05-14T07:51:59.308Z,8.10
2023-05-14T07:53:01.472Z,7.40
2023-05-14T07:54:03.855Z,7.05
2023-05-14T07:55:06.935Z,7.88
2023-05-14T07:56:09.068Z,7.13
2023-05-14T07:57:11.194Z,7.47
2023-05-14T07:58:13.319Z,7.47
2023-05-14T07:59:15.512Z,8.23
2023-05-14T08:00:18.145Z,7.93
2023-05-14T08:01:20.885Z,7.68
2023-05-14T08:02:23.122Z,7.50
2023-05-14T08:03:25.543Z,7.47
2023-05-14T08:04:27.796Z,7.65
2023-05-14T08:05:29.982Z,7.00
2023-05-14T08:06:32.098Z,7.72
2023-05-14T08:07:34.264Z,7.55
2023-05-14T08:08:36.390Z,7.00
2023-05-14T08:09:38.479Z,7.22
2023-05-14T08:10:40.667Z,7.25
2023-05-14T08:11:42.936Z,7.45
2023-05-14T08:12:45.062Z,7.32
2023-05-14T08:13:47.171Z,7.50
2023-05-14T08:14:49.295Z,7.75
2023-05-14T08:15:51.461Z,6.95
2023-05-14T08:16:53.580Z,8.45
2023-05-14T08:17:55.920Z,7.28
2023-05-14T08:18:58.141Z,7.50
2023-05-14T08:20:00.465Z,7.15
2023-05-14T08:21:03.572Z,7.78
2023-05-14T08:22:06.002Z,8.55
2023-05-14T08:23:09.233Z,8.63
2023-05-14T08:24:11.448Z,7.85
2023-05-14T08:25:13.710Z,7.88
2023-05-14T08:26:15.781Z,7.97
2023-05-14T08:27:17.946Z,8.98
2023-05-14T08:28:20.076Z,7.82
2023-05-14T08:29:22.203Z,8.38
2023-05-14T08:30:24.545Z,7.45
2023-05-14T08:31:27.005Z,8.60
2023-05-14T08:32:29.681Z,8.38
2023-05-14T08:33:31.837Z,8.60
2023-05-14T08:34:33.943Z,8.57
2023-05-14T08:35:36.281Z,7.72
2023-05-14T08:36:39.203Z,8.30
2023-05-14T08:37:41.314Z,8.13
2023-05-14T08:38:44.236Z,8.32
2023-05-14T08:39:46.394Z,8.07
2023-05-14T08:40:58.789Z,8.52
2023-05-14T08:42:02.351Z,9.20
2023-05-14T08:43:05.947Z,9.25
2023-05-14T08:44:14.969Z,9.10
2023-05-14T08:45:19.637Z,9.48
2023-05-14T08:47:25.424Z,9.45
2023-05-14T08:48:32.209Z,9.77
2023-05-14T08:49:45.049Z,10.82
2023-05-14T08:50:47.275Z,9.40
2023-05-14T08:51:49.608Z,9.02
2023-05-14T08:52:52.249Z,8.88
2023-05-14T08:53:54.514Z,8.30
2023-05-14T08:54:57.653Z,8.35
2023-05-14T08:56:01.668Z,8.93
2023-05-14T08:57:04.661Z,8.45
2023-05-14T08:58:06.836Z,8.73
2023-05-14T08:59:08.940Z,7.82
2023-05-14T09:00:11.919Z,8.43
2023-05-14T09:01:14.198Z,7.38
2023-05-14T09:02:17.480Z,9.07
2023-05-14T09:03:21.081Z,8.85
2023-05-14T09:04:24.825Z,8.63
2023-05-14T09:05:27.114Z,8.43
2023-05-14T09:06:29.447Z,8.35
2023-05-14T09:07:31.869Z,8.45
2023-05-14T09:08:36.452Z,8.70
2023-05-14T09:10:40.605Z,8.48
2023-05-14T09:11:45.695Z,9.43
2023-05-14T09:12:47.928Z,8.48
2023-05-14T09:13:50.080Z,9.18
2023-05-14T09:14:52.204Z,9.45
2023-05-14T09:15:54.948Z,8.63
2023-05-14T09:16:57.241Z,9.00
2023-05-14T09:17:59.846Z,8.70
2023-05-14T09:19:02.067Z,8.52
2023-05-14T09:20:04.950Z,8.98
2023-05-14T09:21:08.366Z,9.10
2023-05-14T09:22:13.099Z,9.02
2023-05-14T09:23:15.659Z,10.80
2023-05-14T09:24:26.170Z,8.60
2023-05-14T09:25:31.962Z,8.93
2023-05-14T09:26:34.903Z,8.57
2023-05-14T09:27:37.074Z,9.07
2023-05-14T09:28:42.134Z,9.45
2023-05-14T09:29:44.274Z,9.10
2023-05-14T09:30:52.249Z,9.10
2023-05-14T09:31:55.855Z,7.88
2023-05-14T09:32:58.034Z,9.35
2023-05-14T09:34:00.766Z,8.63
2023-05-14T09:35:20.739Z,8.38
2023-05-14T09:36:24.963Z,9.25
2023-05-14T09:37:28.713Z,8.68
2023-05-14T09:38:34.048Z,7.93
2023-05-14T09:39:37.318Z,7.68
2023-05-14T09:40:39.778Z,7.43
2023-05-14T09:41:41.973Z,8.68
2023-05-14T09:42:44.474Z,8.43
2023-05-14T09:43:46.586Z,9.00
2023-05-14T09:44:48.739Z,8.38
2023-05-14T09:45:50.864Z,8.93
2023-05-14T09:46:53.380Z,8.63
2023-05-14T09:47:55.797Z,8.52
2023-05-14T09:48:58.584Z,9.23
2023-05-14T09:50:00.775Z,8.18
2023-05-14T09:51:04.642Z,8.65
2023-05-14T09:52:07.045Z,9.43
2023-05-14T09:53:09.961Z,9.82
2023-05-14T09:54:12.126Z,8.77
2023-05-14T09:55:14.394Z,9.73
2023-05-14T09:56:16.615Z,8.77
2023-05-14T09:57:19.287Z,8.95
2023-05-14T09:58:21.728Z,9.20
2023-05-14T09:59:23.835Z,8.57
2023-05-14T10:00:26.253Z,9.50
2023-05-14T10:01:29.929Z,9.38
2023-05-14T10:02:38.913Z,9.38
2023-05-14T10:03:41.283Z,8.48
2023-05-14T10:04:45.132Z,9.90
2023-05-14T10:05:49.203Z,9.18
2023-05-14T10:06:52.394Z,9.88
2023-05-14T10:07:57.387Z,8.98
2023-05-14T10:09:03.075Z,10.20
2023-05-14T10:10:08.105Z,9.25
2023-05-14T10:11:25.114Z,9.32
2023-05-14T10:12:29.914Z,9.35
2023-05-14T10:13:38.058Z,8.90
2023-05-14T10:14:41.485Z,10.35
2023-05-14T10:15:50.660Z,10.02
2023-05-14T10:16:54.169Z,9.82
2023-05-14T10:17:59.352Z,9.05
2023-05-14T10:19:06.557Z,9.85
2023-05-14T10:20:10.108Z,9.05
2023-05-14T10:21:14.795Z,9.68
2023-05-14T10:23:19.080Z,9.48
2023-05-14T10:24:21.775Z,10.43
2023-05-14T10:25:24.163Z,9.85
2023-05-14T10:26:27.673Z,9.57
2023-05-14T10:27:30.214Z,9.98
2023-05-14T10:28:32.777Z,9.68
2023-05-14T10:29:36.317Z,8.63
2023-05-14T10:30:46.269Z,9.50
2023-05-14T10:31:49.764Z,8.63
2023-05-14T10:33:06.568Z,9.48
2023-05-14T10:34:32.476Z,10.13
2023-05-14T10:35:57.948Z,9.52
2023-05-14T10:37:07.095Z,9.20
2023-05-14T10:38:09.293Z,8.75
2023-05-14T10:39:11.400Z,9.52
2023-05-14T10:40:14.390Z,9.23
2023-05-14T10:41:17.924Z,9.95
2023-05-14T10:42:27.712Z,8.98
2023-05-14T10:43:31.050Z,9.70
2023-05-14T10:44:35.761Z,9.85
2023-05-14T10:46:40.356Z,8.48
2023-05-14T10:47:44.726Z,9.20
2023-05-14T10:48:46.933Z,10.15
2023-05-14T10:49:49.583Z,10.10
2023-05-14T10:50:52.216Z,8.98
2023-05-14T10:51:54.536Z,9.68
2023-05-14T10:52:57.230Z,10.57
2023-05-14T10:54:01.180Z,10.20
2023-05-14T10:55:10.112Z,10.20
2023-05-14T10:56:13.848Z,10.02
2023-05-14T10:57:18.148Z,9.55
2023-05-14T10:58:20.993Z,8.98
2023-05-14T10:59:27.524Z,10.13
2023-05-14T11:00:29.684Z,10.48
2023-05-14T11:01:32.021Z,8.77
2023-05-14T11:02:39.833Z,9.90
2023-05-14T11:03:45.916Z,10.52
2023-05-14T11:05:00.935Z,9.25
2023-05-14T11:06:03.790Z,10.15
2023-05-14T11:07:06.092Z,9.77
2023-05-14T11:08:08.775Z,10.43
2023-05-14T11:09:12.865Z,10.40
2023-05-14T11:10:20.474Z,10.90
2023-05-14T11:11:24.620Z,9.95
2023-05-14T11:12:27.393Z,10.25
2023-05-14T11:13:30.132Z,10.82
2023-05-14T11:14:32.252Z,10.45
2023-05-14T11:15:34.586Z,10.02
2023-05-14T11:16:37.774Z,10.25
2023-05-14T11:17:41.411Z,10.93
2023-05-14T11:18:43.575Z,9.60
2023-05-14T11:19:45.981Z,10.90
2023-05-14T11:20:48.114Z,11.45
2023-05-14T11:21:50.254Z,11.10
2023-05-14T11:22:52.460Z,11.15
2023-05-14T11:23:55.584Z,11.55
2023-05-14T11:24:57.755Z,10.48
2023-05-14T11:25:59.918Z,10.57
2023-05-14T11:27:02.062Z,12.63
2023-05-14T11:28:04.414Z,11.55
2023-05-14T11:29:07.057Z,11.52
2023-05-14T11:30:17.212Z,11.05
2023-05-14T11:31:19.442Z,10.95
2023-05-14T11:32:21.827Z,10.75
2023-05-14T11:33:23.985Z,12.48
2023-05-14T11:34:26.135Z,10.68
2023-05-14T11:35:28.290Z,11.13
2023-05-14T11:36:31.210Z,11.82
2023-05-14T11:37:33.481Z,10.18
2023-05-14T11:38:47.439Z,10.25
2023-05-14T11:39:54.738Z,10.77
2023-05-14T11:40:58.486Z,9.52
2023-05-14T11:42:03.093Z,10.70
2023-05-14T11:43:05.214Z,11.07
2023-05-14T11:44:08.557Z,10.55
2023-05-14T11:45:12.697Z,11.63
2023-05-14T11:46:21.871Z,10.73
2023-05-14T11:47:24.154Z,10.82
2023-05-14T11:48:26.296Z,11.25
2023-05-14T11:49:32.436Z,10.52
2023-05-14T11:50:36.703Z,11.65
2023-05-14T11:51:38.866Z,11.45
2023-05-14T11:52:41.648Z,11.63
2023-05-14T11:53:45.261Z,10.40
2023-05-14T11:54:49.712Z,10.73
2023-05-14T11:55:53.071Z,11.02
2023-05-14T11:56:56.225Z,10.43
2023-05-14T11:57:58.461Z,9.18
2023-05-14T11:59:00.861Z,8.77
2023-05-14T12:00:04.711Z,10.10
2023-05-14T12:01:07.066Z,9.75
2023-05-14T12:02:13.140Z,10.10
2023-05-14T12:03:15.795Z,10.27
2023-05-14T12:04:22.371Z,9.68
2023-05-14T12:05:25.227Z,9.68
2023-05-14T12:06:32.190Z,10.95
2023-05-14T12:07:34.342Z,9.70
2023-05-14T12:08:37.700Z,10.50
2023-05-14T12:09:44.230Z,10.60
2023-05-14T12:10:47.336Z,9.63
2023-05-14T12:11:50.914Z,10.40
2023-05-14T12:12:52.997Z,9.95
2023-05-14T12:13:55.096Z,10.43
2023-05-14T12:14:59.821Z,9.43
2023-05-14T12:17:15.755Z,10.45
2023-05-14T12:18:24.456Z,10.13
2023-05-14T12:19:27.459Z,10.57
2023-05-14T12:20:29.732Z,10.02
2023-05-14T12:21:32.064Z,10.93
2023-05-14T12:22:36.402Z,10.20
2023-05-14T12:23:39.677Z,10.48
2023-05-14T12:25:03.795Z,10.98
2023-05-14T12:26:07.250Z,10.43
2023-05-14T12:27:10.495Z,11.25
2023-05-14T12:28:16.366Z,8.95
2023-05-14T12:29:18.550Z,10.32
2023-05-14T12:30:22.080Z,10.27
2023-05-14T12:31:34.202Z,9.85
2023-05-14T12:32:39.400Z,10.70
2023-05-14T12:33:41.685Z,10.38
2023-05-14T12:34:43.803Z,11.32
2023-05-14T12:35:47.019Z,10.25
2023-05-14T12:36:49.202Z,12.00
2023-05-14T12:37:51.300Z,10.65
2023-05-14T12:39:01.578Z,11.82
2023-05-14T12:40:06.846Z,10.73
2023-05-14T12:41:08.980Z,11.15
2023-05-14T12:42:11.200Z,11.70
2023-05-14T12:43:13.308Z,11.40
2023-05-14T12:44:15.498Z,11.57
2023-05-14T12:45:17.847Z,12.07
2023-05-14T12:46:20.195Z,11.70
2023-05-14T12:47:22.484Z,12.50
2023-05-14T12:48:25.053Z,11.77
2023-05-14T12:49:27.221Z,12.00
2023-05-14T12:50:29.812Z,12.32
2023-05-14T12:51:31.946Z,11.98
2023-05-14T12:52:38.359Z,10.73
2023-05-14T12:53:41.718Z,11.75
2023-05-14T12:54:44.165Z,11.57
2023-05-14T12:55:46.376Z,12.05
2023-05-14T12:56:48.866Z,13.75
2023-05-14T12:57:51.022Z,11.55
2023-05-14T12:58:54.527Z,11.48
2023-05-14T12:59:57.277Z,11.95
2023-05-14T13:00:59.690Z,11.27
2023-05-14T13:02:01.866Z,12.90
2023-05-14T13:03:04.041Z,11.98
2023-05-14T13:04:06.375Z,12.88
2023-05-14T13:05:08.694Z,12.23
2023-05-14T13:06:10.945Z,11.95
2023-05-14T13:07:13.235Z,13.43
2023-05-14T13:08:17.815Z,13.00
2023-05-14T13:09:19.933Z,13.93
2023-05-14T13:10:22.038Z,12.77
2023-05-14T13:11:24.109Z,13.00
2023-05-14T13:12:26.886Z,11.18
2023-05-14T13:13:29.146Z,12.65
2023-05-14T13:14:31.246Z,12.32
2023-05-14T13:15:33.778Z,13.02
2023-05-14T13:16:36.047Z,12.13
2023-05-14T13:17:38.224Z,13.63
2023-05-14T13:18:40.329Z,14.18
2023-05-14T13:19:42.471Z,13.38
2023-05-14T13:20:46.118Z,13.40
2023-05-14T13:21:48.403Z,13.02
2023-05-14T13:22:50.730Z,13.63
2023-05-14T13:23:52.853Z,14.52
2023-05-14T13:24:54.973Z,13.07
2023-05-14T13:25:57.074Z,14.00
2023-05-14T13:26:59.167Z,14.55
2023-05-14T13:28:01.564Z,13.75
2023-05-14T13:29:03.705Z,13.35
2023-05-14T13:30:06.366Z,13.30
2023-05-14T13:31:09.238Z,13.35
2023-05-14T13:32:11.438Z,13.65
2023-05-14T13:33:13.586Z,12.10
2023-05-14T13:34:15.909Z,12.65
2023-05-14T13:35:18.161Z,12.27
2023-05-14T13:36:20.409Z,11.95
2023-05-14T13:37:22.541Z,12.23
2023-05-14T13:38:24.661Z,13.45
2023-05-14T13:39:27.333Z,12.50
2023-05-14T13:40:29.558Z,14.30
2023-05-14T13:41:34.953Z,11.95
2023-05-14T13:42:37.387Z,13.27
2023-05-14T13:43:39.611Z,13.68
2023-05-14T13:44:41.745Z,13.00
2023-05-14T13:45:43.837Z,13.00
2023-05-14T13:46:46.009Z,12.88
2023-05-14T13:47:49.474Z,12.95
2023-05-14T13:48:52.462Z,11.70
2023-05-14T13:49:55.230Z,12.77
2023-05-14T13:50:57.498Z,11.82
2023-05-14T13:51:59.628Z,12.40
2023-05-14T13:53:01.757Z,12.60
2023-05-14T13:54:03.996Z,12.45
2023-05-14T13:55:06.800Z,11.57
2023-05-14T13:56:08.971Z,12.30
2023-05-14T13:57:11.114Z,12.88
2023-05-14T13:58:13.403Z,12.98
2023-05-14T13:59:15.631Z,11.77
2023-05-14T14:00:18.179Z,12.65
2023-05-14T14:01:20.305Z,13.52
2023-05-14T14:02:22.504Z,12.80